AirNav   Bose Proflight and A20 aviation headeets
 
 449 users online  

OR59 Trivelpiece Airport
Yamhill, Oregon, USA

GOING TO YAMHILL?


FAA INFORMATION EFFECTIVE 31 JANUARY 2019

Location

FAA Identifier: OR59
Lat/Long: 45-19-53.4120N / 123-12-25.3840W
45-19.890200N / 123-12.423067W
45.3315033 / -123.2070511
(estimated)
Elevation: 165 ft. / 50 m (estimated)
Variation: 19E (1985)
From city: 1 mile SW of YAMHILL, OR
Time zone: UTC -8 (UTC -7 during Daylight Saving Time)
Zip code: 97148

Airport Operations

Airport use: Private use. Permission required prior to landing
Activation date: 05/1989
Control tower: no
ARTCC: SEATTLE CENTER
FSS: MC MINNVILLE FLIGHT SERVICE STATION
Attendance: UNATNDD
Segmented circle: no

Airport Communications

WX ASOS at MMV (9 nm S): 135.675 (503-434-9153)
WX ASOS at HIO (17 nm NE): PHONE 503-640-2984
WX ASOS at UAO (19 nm E): PHONE 503-678-3011

Nearby radio navigation aids

VOR radial/distance  VOR name  Freq  Var
UBGr241/9.7NEWBERG VOR/DME117.4021E
BTGr205/36.0BATTLE GROUND VORTAC116.6021E

 
NDB name  Hdg/Dist  Freq  Var  ID
BANKS185/19.235616EPND .--. -. -..

Airport Services

Runway Information

Runway 7/25

Dimensions: 1300 x 40 ft. / 396 x 12 m
Surface: turf
RUNWAY 7  RUNWAY 25
Traffic pattern: leftleft
Obstructions: none50 ft. trees, 1500 ft. from runway

Airport Ownership and Management from official FAA records

Ownership: Privately-owned
Owner: PATSY TRIVELPIECE
9280 NW OLD RAILROAD GRADE
YAMHILL, OR 97148
Phone 503-662-4505
Manager: WENDEL TRIVELPIECE
9220 NW MC SWEEN LANE
YAMHILL, OR 97148
Phone 503-662-4505

Additional Remarks

OWNER DESIRES ARPT NOT BE CHARTED
RWY SOFT WHEN WET.
FOR CD CTC PORTLAND APCH AT 503-493-7545.

Instrument Procedures

There are no published instrument procedures at OR59.

Some nearby airports with instrument procedures:

KMMV - Mc Minnville Municipal Airport (9 nm S)
KHIO - Portland-Hillsboro Airport (17 nm NE)
KUAO - Aurora State Airport (19 nm E)
KTMK - Tillamook Airport (26 nm W)
KSLE - McNary Field Airport (27 nm S)
 
Loc | Ops | Rwys | IFR | FBO | Links
Com | Nav | Svcs | Stats | Notes
Area around OR59 (Trivelpiece Airport)
 
Road maps at: MapQuest Bing Google
 
Aerial photo
WARNING: Photo may not be current or correct
Aerial photo of OR59 (Trivelpiece Airport)
Do you have a better or more recent aerial photo of Trivelpiece Airport that you would like to share? If so, please send us your photo.

 
Sectional chart

 
Airport distance calculator
Flying to Trivelpiece Airport? Find the distance to fly.

From to OR59

Sunrise and sunset
Times for 18-Feb-2019
 Local
(UTC-8)
 Zulu
(UTC)
Morning civil twilight06:4014:40
Sunrise07:1015:10
Sunset17:4301:43
Evening civil twilight18:1302:13

Current date and time
Zulu (UTC)  18-Feb-2019 11:41:03
Local (UTC-8)  18-Feb-2019 03:41:03
 
METAR
KMMV 
8nm S 
181120Z AUTO 27003KT 3/4SM BR VV002 M03/M03 A3037 RMK AO2 I1001 T10281033 $
KHIO 
17nm NE 
181113Z AUTO 33003KT 3/4SM R13R/4000V5500FT BR M04/M04 A3037 RMK AO2 I1000 T10391044 $
KUAO 
19nm E 
181053Z AUTO 00000KT 6SM BR CLR M01/M02 A3038 RMK AO2 SLP289 I1000 T10061017
TAF
KHIO 
17nm NE 
180528Z 1806/1906 VRB03KT P6SM SKC FM180700 00000KT P6SM SCT035 FM181300 00000KT P6SM OVC025 FM181800 VRB03KT P6SM OVC050
KUAO 
19nm E 
180528Z 1806/1906 00000KT P6SM BKN040
NOTAMs
Click for the latest NOTAMs
NOTAMs are issued by the DoD/FAA and will open in a separate window not controlled by AirNav.

 

 
 

Would you like to see your business listed on this page?

 If your business provides an interesting product or service to pilots, flight crews, aircraft, or users of the Trivelpiece Airport, you should consider listing it here.  To start the listing process, click on the button below
 
Add a business
 

Other Pages about Trivelpiece Airport

Update a link
 
Copyright © AirNav, LLC. All rights reserved. Privacy Policy  Contact